Time;durP1;ratioP1;P1;durP2;ratioP2;P2;SDS_P1;SDS_P2;PMS_P1;PMS_P2;Temp;Humidity;BMP_temperature;BMP_pressure;BME280_temperature;BME280_humidity;BME280_pressure;Samples;Min_cycle;Max_cycle;Signal;HPM_P1;HPM_P2
2021/04/20 00:00:28;;;;;;;17.25;8.32;;;7.70;99.90;;;;;;5117886;28;20012;-75
2021/04/20 00:02:53;;;;;;;19.88;10.13;;;7.70;99.90;;;;;;5118510;28;20026;-76
2021/04/20 00:05:20;;;;;;;18.65;9.30;;;7.70;99.90;;;;;;5118001;28;20393;-74
2021/04/20 00:07:46;;;;;;;17.15;9.05;;;7.70;99.90;;;;;;5117829;28;20024;-75
2021/04/20 00:10:20;;;;;;;17.35;8.70;;;7.60;99.90;;;;;;5117503;28;20028;-75
2021/04/20 00:12:47;;;;;;;17.88;7.57;;;7.60;99.90;;;;;;5120089;28;20031;-76
2021/04/20 00:15:21;;;;;;;20.23;8.93;;;7.60;99.90;;;;;;5117755;28;20035;-75
2021/04/20 00:17:49;;;;;;;18.90;9.02;;;7.50;99.90;;;;;;5118221;28;20423;-75
2021/04/20 00:20:15;;;;;;;18.73;8.82;;;7.50;99.90;;;;;;5117490;28;20181;-74
2021/04/20 00:22:41;;;;;;;17.25;9.25;;;7.40;99.90;;;;;;5099560;28;20031;-74
2021/04/20 00:25:07;;;;;;;21.45;8.55;;;7.40;99.90;;;;;;5117976;28;20026;-75
2021/04/20 00:27:32;;;;;;;19.20;9.05;;;7.40;99.90;;;;;;5099314;28;20049;-79
2021/04/20 00:29:58;;;;;;;18.38;9.75;;;7.30;99.90;;;;;;5117164;28;20024;-74
2021/04/20 00:32:23;;;;;;;18.83;9.32;;;7.40;99.90;;;;;;5116023;28;20047;-74
2021/04/20 00:34:49;;;;;;;16.60;8.77;;;7.40;99.90;;;;;;5099274;28;20536;-74
2021/04/20 00:37:14;;;;;;;18.25;9.32;;;7.40;99.90;;;;;;5117705;28;20103;-74
2021/04/20 00:39:41;;;;;;;21.45;10.65;;;7.40;99.90;;;;;;5098662;28;20019;-74
2021/04/20 00:42:08;;;;;;;20.77;10.65;;;7.40;99.90;;;;;;5098765;28;20108;-76
2021/04/20 00:44:35;;;;;;;20.40;9.75;;;7.40;99.90;;;;;;5117270;28;20027;-75
2021/04/20 00:47:04;;;;;;;21.67;9.68;;;7.40;99.90;;;;;;5117183;28;20027;-75
2021/04/20 00:49:31;;;;;;;20.90;10.82;;;7.40;99.90;;;;;;5116470;28;20019;-74
2021/04/20 00:51:57;;;;;;;22.10;10.93;;;7.50;99.90;;;;;;5117519;28;20024;-74
2021/04/20 00:54:26;;;;;;;18.63;10.20;;;7.50;99.90;;;;;;5099384;28;20026;-75
2021/04/20 00:56:53;;;;;;;22.20;10.95;;;7.50;99.90;;;;;;5117615;28;20024;-75
2021/04/20 00:59:19;;;;;;;22.10;10.00;;;7.60;99.90;;;;;;5117033;28;20080;-75
2021/04/20 01:01:45;;;;;;;19.40;10.43;;;7.60;99.90;;;;;;5098576;28;20035;-75
2021/04/20 01:04:13;;;;;;;23.80;11.05;;;7.70;99.90;;;;;;5116599;28;20020;-76
2021/04/20 01:06:43;;;;;;;22.10;11.10;;;7.70;99.90;;;;;;5117568;28;20023;-74
2021/04/20 01:09:09;;;;;;;18.80;10.13;;;7.70;99.90;;;;;;5117096;28;20076;-79
2021/04/20 01:11:37;;;;;;;23.55;10.82;;;7.80;99.90;;;;;;5098334;28;20067;-74
2021/04/20 01:14:04;;;;;;;19.75;9.48;;;7.80;99.90;;;;;;5097839;28;20110;-74
2021/04/20 01:16:30;;;;;;;22.10;10.75;;;7.90;99.90;;;;;;5117652;28;20023;-74
2021/04/20 01:18:56;;;;;;;20.05;9.85;;;7.90;99.90;;;;;;5111974;22;20055;-76
2021/04/20 01:21:22;;;;;;;22.60;10.00;;;7.90;99.90;;;;;;5078617;28;20023;-74
2021/04/20 01:24:01;;;;;;;19.33;9.73;;;7.90;99.90;;;;;;5083986;28;20035;-76
2021/04/20 01:26:30;;;;;;;22.63;10.20;;;7.90;99.90;;;;;;5059142;28;20048;-79
2021/04/20 01:28:58;;;;;;;21.33;10.50;;;8.00;99.90;;;;;;5095919;28;20021;-75
2021/04/20 01:31:25;;;;;;;24.63;11.05;;;8.00;99.90;;;;;;5116453;28;20499;-75
2021/04/20 01:33:51;;;;;;;22.25;12.48;;;8.00;99.90;;;;;;5116344;28;20024;-75
2021/04/20 01:36:19;;;;;;;22.70;10.82;;;8.00;99.90;;;;;;5102416;28;20035;-75
2021/04/20 01:38:46;;;;;;;23.75;10.98;;;8.00;99.90;;;;;;5077886;28;20503;-74
2021/04/20 01:41:11;;;;;;;21.70;10.10;;;8.00;99.90;;;;;;5077698;28;20144;-75
2021/04/20 01:43:38;;;;;;;20.92;9.98;;;8.00;99.90;;;;;;5077041;28;20020;-79
2021/04/20 01:46:04;;;;;;;22.98;10.50;;;8.00;99.90;;;;;;5077886;28;20158;-76
2021/04/20 01:48:30;;;;;;;24.20;11.35;;;7.90;99.90;;;;;;5095675;28;20020;-74
2021/04/20 01:50:56;;;;;;;24.80;10.85;;;7.90;99.90;;;;;;5095575;28;20016;-76
2021/04/20 01:53:22;;;;;;;22.35;11.65;;;7.90;99.90;;;;;;5077687;28;20035;-74
2021/04/20 01:55:58;;;;;;;21.85;10.85;;;7.90;99.90;;;;;;5107501;22;20409;-75
2021/04/20 01:58:25;;;;;;;20.98;10.38;;;8.10;99.90;;;;;;5053463;28;20497;-76
2021/04/20 02:00:52;;;;;;;23.15;10.77;;;7.80;99.90;;;;;;5053642;28;20112;-76
2021/04/20 02:03:17;;;;;;;22.13;10.68;;;7.70;99.90;;;;;;5054701;28;20582;-77
2021/04/20 02:05:43;;;;;;;24.85;11.52;;;7.70;99.90;;;;;;5054455;28;20020;-77
2021/04/20 02:08:09;;;;;;;21.55;10.18;;;7.70;99.90;;;;;;5054565;28;20473;-76
2021/04/20 02:10:34;;;;;;;26.00;12.20;;;7.60;99.90;;;;;;5054929;28;20032;-76
2021/04/20 02:13:00;;;;;;;22.98;11.00;;;7.60;99.90;;;;;;5054306;28;20155;-77
2021/04/20 02:15:26;;;;;;;21.83;11.70;;;7.60;99.90;;;;;;5054191;28;20061;-76
2021/04/20 02:17:53;;;;;;;25.05;11.10;;;7.50;99.90;;;;;;5054279;28;20036;-77
2021/04/20 02:20:20;;;;;;;21.70;10.85;;;7.40;99.90;;;;;;5054486;28;20021;-76
2021/04/20 02:22:48;;;;;;;22.02;10.55;;;7.40;99.90;;;;;;5054017;28;20032;-76
2021/04/20 02:25:17;;;;;;;18.67;8.88;;;7.40;99.90;;;;;;5054590;28;20021;-76
2021/04/20 02:27:43;;;;;;;24.57;11.67;;;7.30;99.90;;;;;;5054831;28;20017;-76
2021/04/20 02:30:11;;;;;;;26.95;11.82;;;7.20;99.90;;;;;;5054560;28;20263;-77
2021/04/20 02:32:38;;;;;;;23.48;10.68;;;7.20;99.90;;;;;;5054257;28;20021;-76
2021/04/20 02:35:09;;;;;;;22.08;11.30;;;7.10;99.90;;;;;;5054478;28;20031;-75
2021/04/20 02:37:36;;;;;;;23.77;11.57;;;7.10;99.90;;;;;;5054623;28;20396;-75
2021/04/20 02:40:11;;;;;;;24.50;11.15;;;7.00;99.90;;;;;;5053296;28;20053;-75
2021/04/20 02:42:38;;;;;;;21.33;10.98;;;6.90;99.90;;;;;;5054732;28;20029;-75
2021/04/20 02:45:06;;;;;;;22.67;10.55;;;6.90;99.90;;;;;;5054883;28;20390;-75
2021/04/20 02:47:36;;;;;;;24.02;10.88;;;6.80;99.90;;;;;;5054965;28;20494;-75
2021/04/20 02:50:15;;;;;;;26.40;11.70;;;6.80;99.90;;;;;;5053709;28;20017;-75
2021/04/20 02:52:41;;;;;;;20.25;10.63;;;6.80;99.90;;;;;;5054689;28;20104;-75
2021/04/20 02:55:09;;;;;;;26.13;12.20;;;6.80;99.90;;;;;;5054659;28;20079;-75
2021/04/20 02:57:39;;;;;;;22.48;10.95;;;6.70;99.90;;;;;;5054528;28;20063;-75
2021/04/20 03:00:07;;;;;;;23.52;11.30;;;6.70;99.90;;;;;;5054892;28;20029;-75
2021/04/20 03:02:36;;;;;;;26.40;11.48;;;6.60;99.90;;;;;;5052846;28;20033;-75
2021/04/20 03:05:05;;;;;;;26.02;11.48;;;6.50;99.90;;;;;;5054757;28;20017;-75
2021/04/20 03:07:31;;;;;;;22.85;10.90;;;6.40;99.90;;;;;;5054491;28;20482;-75
2021/04/20 03:09:56;;;;;;;24.77;11.65;;;6.40;99.90;;;;;;5054027;28;20048;-74
2021/04/20 03:12:22;;;;;;;23.83;10.85;;;6.30;99.90;;;;;;5053451;28;20083;-74
2021/04/20 03:14:48;;;;;;;26.77;11.82;;;6.30;99.90;;;;;;5059249;28;20031;-75
2021/04/20 03:17:14;;;;;;;21.75;10.30;;;6.30;99.90;;;;;;5083972;22;20055;-78
2021/04/20 03:19:40;;;;;;;24.95;11.55;;;6.20;99.90;;;;;;5133009;22;20127;-79
2021/04/20 03:22:06;;;;;;;23.08;10.30;;;6.20;99.90;;;;;;5085580;22;20495;-75
2021/04/20 03:24:32;;;;;;;23.65;11.52;;;6.00;99.90;;;;;;5080153;28;20097;-75
2021/04/20 03:26:58;;;;;;;25.45;10.93;;;6.10;99.90;;;;;;5080341;28;20476;-75
2021/04/20 03:29:24;;;;;;;25.50;10.57;;;6.00;99.90;;;;;;5096203;28;20028;-75
2021/04/20 03:31:50;;;;;;;24.90;11.32;;;6.00;99.90;;;;;;5100714;28;20122;-75
2021/04/20 03:34:30;;;;;;;24.42;11.68;;;6.00;99.90;;;;;;5100845;28;20472;-75
2021/04/20 03:37:05;;;;;;;29.40;12.98;;;5.90;99.90;;;;;;5139342;27;20380;-75
2021/04/20 03:39:36;;;;;;;27.35;12.13;;;5.90;99.90;;;;;;5098880;28;20485;-75
2021/04/20 03:42:07;;;;;;;27.67;11.88;;;5.90;99.90;;;;;;5080197;28;20051;-75
2021/04/20 03:44:46;;;;;;;26.77;12.57;;;5.90;99.90;;;;;;5100481;28;20389;-75
2021/04/20 03:47:23;;;;;;;;;;;5.90;99.90;;;;;;5085261;27;20024;-74
2021/04/20 03:49:51;;;;;;;28.33;11.93;;;5.90;99.90;;;;;;5122535;27;19956;-75
2021/04/20 03:52:21;;;;;;;28.63;12.38;;;5.80;99.90;;;;;;5140210;27;20410;-75
2021/04/20 03:54:49;;;;;;;27.02;11.52;;;5.80;99.90;;;;;;5139817;27;20026;-75
2021/04/20 03:57:17;;;;;;;27.58;12.07;;;5.80;99.90;;;;;;5105165;28;20034;-75
2021/04/20 03:59:45;;;;;;;25.10;11.43;;;5.70;99.90;;;;;;5118746;28;20024;-76
2021/04/20 04:02:13;;;;;;;25.52;12.30;;;5.70;99.90;;;;;;5118594;28;20082;-75
2021/04/20 04:04:42;;;;;;;23.83;11.23;;;5.60;99.90;;;;;;5118622;28;20050;-79
2021/04/20 04:07:09;;;;;;;27.58;12.38;;;5.70;99.90;;;;;;5113470;27;20027;-75
2021/04/20 04:09:38;;;;;;;25.00;12.23;;;5.50;99.90;;;;;;5120025;27;20108;-75
2021/04/20 04:12:07;;;;;;;31.77;13.30;;;5.60;99.90;;;;;;5117970;28;20055;-76
2021/04/20 04:14:35;;;;;;;28.57;12.67;;;5.60;99.90;;;;;;5118252;28;20045;-77
2021/04/20 04:17:06;;;;;;;29.52;13.20;;;5.60;99.90;;;;;;5117444;28;20293;-76
2021/04/20 04:19:38;;;;;;;31.02;13.63;;;5.60;99.90;;;;;;5098452;22;20082;-77
2021/04/20 04:22:11;;;;;;;28.42;13.65;;;5.60;99.90;;;;;;5093885;28;20048;-77
2021/04/20 04:24:44;;;;;;;32.88;14.10;;;5.60;99.90;;;;;;5096598;28;20024;-76
2021/04/20 04:27:12;;;;;;;33.72;14.13;;;5.60;99.90;;;;;;5097079;28;20020;-77
2021/04/20 04:29:39;;;;;;;28.52;13.32;;;5.50;99.90;;;;;;5095690;28;20012;-77
2021/04/20 04:32:08;;;;;;;30.85;13.30;;;5.50;99.90;;;;;;5097142;28;20016;-75
2021/04/20 04:34:34;;;;;;;;;;;5.50;99.90;;;;;;5096002;28;20476;-75
2021/04/20 04:37:04;;;;;;;28.27;12.23;;;5.50;99.90;;;;;;5098119;28;19911;-75
2021/04/20 04:39:30;;;;;;;29.65;13.20;;;5.50;99.90;;;;;;5117292;28;20054;-76
2021/04/20 04:41:56;;;;;;;28.13;13.10;;;5.40;99.90;;;;;;5099597;28;20545;-75
2021/04/20 04:44:22;;;;;;;29.73;12.90;;;5.40;99.90;;;;;;5117667;28;20020;-75
2021/04/20 04:46:48;;;;;;;30.23;12.43;;;5.40;99.90;;;;;;5118117;28;20024;-77
2021/04/20 04:49:15;;;;;;;31.33;13.98;;;5.40;99.90;;;;;;5117492;28;20468;-75
2021/04/20 04:51:41;;;;;;;29.77;13.05;;;5.30;99.90;;;;;;5099537;28;20473;-75
2021/04/20 04:54:12;;;;;;;28.98;12.50;;;5.30;99.90;;;;;;5117596;28;20020;-74
2021/04/20 04:56:41;;;;;;;30.63;12.07;;;5.30;99.90;;;;;;5099009;28;20480;-75
2021/04/20 04:59:08;;;;;;;33.33;14.00;;;5.30;99.90;;;;;;5096891;22;20407;-74
2021/04/20 05:01:38;;;;;;;32.13;13.93;;;5.40;99.90;;;;;;5096121;28;20016;-75
2021/04/20 05:04:06;;;;;;;34.03;13.57;;;5.40;99.90;;;;;;5096624;28;20035;-75
2021/04/20 05:06:39;;;;;;;34.10;14.75;;;5.50;99.90;;;;;;5077868;28;20016;-74
2021/04/20 05:09:16;;;;;;;30.92;13.45;;;5.60;99.90;;;;;;5095706;28;20024;-74
2021/04/20 05:11:43;;;;;;;31.35;14.38;;;5.70;99.90;;;;;;5096582;28;20016;-75
2021/04/20 05:14:11;;;;;;;31.10;13.80;;;5.70;99.90;;;;;;5095832;28;20016;-76
2021/04/20 05:16:39;;;;;;;32.00;14.13;;;5.80;99.90;;;;;;5096214;28;20024;-75
2021/04/20 05:19:09;;;;;;;33.70;14.23;;;5.90;99.90;;;;;;5077413;28;20511;-75
2021/04/20 05:21:35;;;;;;;38.30;15.35;;;5.90;99.90;;;;;;5095989;28;20077;-76
2021/04/20 05:24:00;;;;;;;32.65;14.20;;;6.00;99.90;;;;;;5109425;28;20027;-76
2021/04/20 05:26:30;;;;;;;31.20;14.13;;;5.90;99.90;;;;;;5116313;28;20061;-77
2021/04/20 05:29:04;;;;;;;32.25;13.95;;;6.00;99.90;;;;;;5097774;28;20031;-76
2021/04/20 05:31:31;;;;;;;32.70;14.70;;;6.10;99.90;;;;;;5116380;28;20473;-76
2021/04/20 05:34:01;;;;;;;32.20;14.60;;;6.10;99.90;;;;;;5098247;28;20023;-77
2021/04/20 05:36:28;;;;;;;31.38;14.00;;;6.20;99.90;;;;;;5115959;28;20024;-77
2021/04/20 05:38:56;;;;;;;40.30;16.77;;;6.30;99.90;;;;;;5096952;28;20024;-77
2021/04/20 05:41:28;;;;;;;37.55;15.40;;;6.40;99.90;;;;;;5115552;28;20027;-75
2021/04/20 05:43:56;;;;;;;33.80;15.00;;;6.50;99.90;;;;;;5115530;28;20038;-76
2021/04/20 05:46:22;;;;;;;42.40;15.73;;;6.60;99.90;;;;;;5115851;28;20099;-75
2021/04/20 05:48:49;;;;;;;32.40;14.68;;;6.60;99.90;;;;;;5115844;28;20055;-76
2021/04/20 05:51:19;;;;;;;33.65;15.32;;;6.80;99.90;;;;;;5097624;28;20034;-77
2021/04/20 05:53:46;;;;;;;33.80;15.20;;;6.90;99.90;;;;;;5119487;22;20043;-76
2021/04/20 05:56:13;;;;;;;33.90;13.63;;;6.90;99.90;;;;;;5075289;28;20036;-79
2021/04/20 05:58:39;;;;;;;35.50;16.08;;;7.10;99.90;;;;;;5086522;28;20028;-76
2021/04/20 06:01:05;;;;;;;32.78;14.75;;;7.10;99.90;;;;;;5103425;28;20369;-76
2021/04/20 06:03:33;;;;;;;35.50;15.02;;;7.20;99.90;;;;;;5105178;28;20068;-76
2021/04/20 06:06:02;;;;;;;34.72;15.60;;;7.30;99.90;;;;;;5095235;28;20146;-77
2021/04/20 06:08:28;;;;;;;;;;;7.40;99.90;;;;;;5095158;22;20044;-76
2021/04/20 06:10:55;;;;;;;34.50;14.98;;;7.60;99.90;;;;;;5060369;28;20380;-76
2021/04/20 06:13:21;;;;;;;34.10;15.57;;;7.70;99.90;;;;;;5054838;28;20111;-78
2021/04/20 06:15:46;;;;;;;37.95;15.50;;;7.80;99.90;;;;;;5073370;28;20051;-76
2021/04/20 06:18:12;;;;;;;32.47;15.23;;;7.90;99.90;;;;;;5061797;28;20099;-75
2021/04/20 06:20:38;;;;;;;45.42;16.75;;;8.00;99.90;;;;;;5057120;28;20036;-76
2021/04/20 06:23:05;;;;;;;33.95;15.55;;;8.10;99.90;;;;;;5038628;28;20040;-76
2021/04/20 06:25:32;;;;;;;36.13;15.27;;;8.20;99.90;;;;;;5065557;28;20491;-76
2021/04/20 06:27:58;;;;;;;35.92;15.82;;;8.30;99.90;;;;;;5070691;28;20021;-76
2021/04/20 06:30:24;;;;;;;34.45;15.77;;;8.50;99.90;;;;;;5070725;28;20025;-77
2021/04/20 06:32:50;;;;;;;33.08;15.63;;;8.60;99.90;;;;;;5054373;28;20028;-78
2021/04/20 06:35:18;;;;;;;35.83;15.93;;;8.80;99.90;;;;;;5056210;28;20073;-76
2021/04/20 06:37:45;;;;;;;34.28;15.15;;;8.90;99.90;;;;;;5036988;28;20029;-76
2021/04/20 06:40:20;;;;;;;36.90;16.45;;;9.00;99.90;;;;;;5063141;28;20047;-76
2021/04/20 06:42:55;;;;;;;35.88;16.30;;;9.20;99.90;;;;;;5074012;28;20370;-76
2021/04/20 06:45:47;;;;;;;34.70;16.17;;;9.30;99.90;;;;;;5068440;28;20455;-76
2021/04/20 06:48:22;;;;;;;34.35;16.48;;;9.40;99.90;;;;;;5065554;28;20037;-76
2021/04/20 06:50:54;;;;;;;34.85;16.33;;;9.60;99.90;;;;;;5052602;28;20107;-76
2021/04/20 06:53:24;;;;;;;32.95;16.05;;;9.70;99.90;;;;;;5057318;28;20378;-76
2021/04/20 06:56:14;;;;;;;35.95;15.93;;;9.80;99.90;;;;;;5056818;28;20021;-77
2021/04/20 07:01:15;;;;;;;32.28;14.45;;;10.10;99.90;;;;;;5092926;28;20525;-76
2021/04/20 07:04:11;;;;;;;32.67;16.00;;;10.20;99.90;;;;;;5076833;28;20093;-77
2021/04/20 07:06:48;;;;;;;34.05;15.18;;;10.30;99.90;;;;;;5077093;28;20012;-76
2021/04/20 07:09:22;;;;;;;36.13;16.45;;;10.50;99.90;;;;;;5093691;28;20377;-76
2021/04/20 07:11:49;;;;;;;34.55;16.25;;;10.60;99.90;;;;;;5093794;28;20020;-77
2021/04/20 07:14:35;;;;;;;33.97;14.63;;;10.70;99.90;;;;;;5095428;28;20433;-77
2021/04/20 07:17:19;;;;;;;33.20;15.57;;;10.90;99.90;;;;;;5114136;28;20020;-77
2021/04/20 07:20:32;;;;;;;37.28;16.77;;;11.00;99.90;;;;;;5114025;28;20085;-77
2021/04/20 07:23:18;;;;;;;35.08;15.15;;;11.20;99.90;;;;;;5011424;28;20033;-76
2021/04/20 07:26:21;;;;;;;31.15;14.30;;;11.30;99.90;;;;;;4994914;28;20072;-77
2021/04/20 07:28:58;;;;;;;31.00;15.20;;;11.50;99.90;;;;;;5099251;28;20070;-77
2021/04/20 07:31:51;;;;;;;33.92;15.13;;;11.60;99.90;;;;;;5113612;28;20047;-77
2021/04/20 07:34:37;;;;;;;32.95;15.82;;;11.70;99.90;;;;;;5095357;28;20077;-77
2021/04/20 07:37:32;;;;;;;32.15;14.40;;;11.90;99.90;;;;;;5113562;28;20024;-77
2021/04/20 07:40:34;;;;;;;31.05;14.70;;;12.00;99.90;;;;;;5113463;28;20030;-77
2021/04/20 07:43:15;;;;;;;29.88;13.68;;;12.20;99.90;;;;;;5116208;28;20035;-79
2021/04/20 07:46:04;;;;;;;32.25;16.02;;;12.30;99.90;;;;;;5095399;28;20035;-76
2021/04/20 07:48:41;;;;;;;30.23;15.13;;;12.40;99.90;;;;;;5114759;28;20467;-75
2021/04/20 07:51:31;;;;;;;36.63;14.25;;;12.60;99.90;;;;;;5095803;28;20504;-76
2021/04/20 07:54:08;;;;;;;28.20;14.02;;;12.70;99.90;;;;;;5082213;28;20032;-79
2021/04/20 07:56:44;;;;;;;30.35;13.57;;;12.80;99.90;;;;;;5097450;28;20028;-78
2021/04/20 07:59:16;;;;;;;28.30;13.98;;;12.90;99.80;;;;;;5116039;28;20444;-77
2021/04/20 08:01:50;;;;;;;32.13;14.13;;;13.00;99.70;;;;;;5101622;28;20502;-80
2021/04/20 08:04:46;;;;;;;30.63;14.10;;;13.10;99.60;;;;;;5099579;28;20072;-75
2021/04/20 08:07:23;;;;;;;30.95;14.30;;;13.20;99.00;;;;;;5093300;22;20040;-75
2021/04/20 08:09:50;;;;;;;29.50;14.10;;;13.40;97.20;;;;;;5058986;28;20481;-77
2021/04/20 08:12:26;;;;;;;27.40;12.70;;;13.40;95.90;;;;;;5077834;28;20021;-77
2021/04/20 08:15:06;;;;;;;22.88;11.63;;;13.40;95.30;;;;;;5079507;28;20036;-77
2021/04/20 08:17:42;;;;;;;22.55;11.10;;;13.60;94.70;;;;;;5079496;28;20074;-77
2021/04/20 08:20:12;;;;;;;27.50;12.43;;;13.70;94.00;;;;;;5060889;28;20025;-77
2021/04/20 08:22:38;;;;;;;25.25;12.32;;;13.80;92.10;;;;;;5080282;28;20021;-78
2021/04/20 08:25:21;;;;;;;22.98;10.52;;;13.90;90.20;;;;;;5061642;28;20017;-78
2021/04/20 08:28:14;;;;;;;25.92;10.50;;;14.00;89.40;;;;;;5060052;28;20032;-81
2021/04/20 08:33:29;;;;;;;23.30;10.68;;;14.20;88.00;;;;;;5076598;28;20106;-77
2021/04/20 08:35:58;;;;;;;23.73;11.43;;;14.30;89.20;;;;;;5078718;28;20104;-77
2021/04/20 08:38:56;;;;;;;23.42;11.75;;;14.50;86.30;;;;;;5077948;28;20024;-77
2021/04/20 08:41:50;;;;;;;22.27;10.10;;;14.70;87.20;;;;;;5101596;22;20045;-76
2021/04/20 08:44:38;;;;;;;19.33;9.30;;;14.70;83.80;;;;;;5098359;28;20032;-78
2021/04/20 08:47:27;;;;;;;19.88;8.95;;;14.80;78.90;;;;;;5092628;22;20130;-78
2021/04/20 08:50:06;;;;;;;15.85;7.97;;;15.00;77.90;;;;;;5059088;28;20028;-77
2021/04/20 08:52:56;;;;;;;12.98;6.28;;;15.20;77.40;;;;;;5058881;28;20025;-77
2021/04/20 08:55:43;;;;;;;12.13;5.97;;;15.40;74.70;;;;;;5077806;28;20416;-77
2021/04/20 08:58:30;;;;;;;13.55;5.38;;;15.50;70.50;;;;;;5077024;28;20024;-78
2021/04/20 09:01:24;;;;;;;12.02;5.75;;;16.90;69.20;;;;;;5077956;28;20500;-75
2021/04/20 09:04:11;;;;;;;11.13;5.95;;;15.70;66.80;;;;;;5101402;22;20044;-77
2021/04/20 09:06:49;;;;;;;12.82;6.05;;;15.80;65.80;;;;;;5096177;28;20016;-77
2021/04/20 09:09:21;;;;;;;11.20;6.35;;;15.90;64.50;;;;;;5095355;28;20034;-73
2021/04/20 09:11:51;;;;;;;12.15;6.40;;;15.80;65.20;;;;;;5095375;28;20421;-75
2021/04/20 09:14:30;;;;;;;11.00;5.57;;;16.10;65.20;;;;;;5077392;28;20384;-75
2021/04/20 09:17:05;;;;;;;14.57;5.93;;;16.10;63.00;;;;;;5077961;28;20082;-74
2021/04/20 09:19:50;;;;;;;9.32;5.00;;;16.20;62.10;;;;;;5096039;28;20035;-76
2021/04/20 09:22:34;;;;;;;14.77;6.55;;;16.20;61.50;;;;;;5095415;28;20032;-74
2021/04/20 09:25:04;;;;;;;11.60;6.15;;;16.30;63.30;;;;;;5095657;28;20392;-73
2021/04/20 09:27:45;;;;;;;12.38;5.43;;;16.50;61.40;;;;;;5077369;28;20402;-76
2021/04/20 09:30:16;;;;;;;12.25;5.72;;;16.50;59.60;;;;;;5096361;28;20028;-77
2021/04/20 09:32:49;;;;;;;7.80;4.43;;;16.50;56.70;;;;;;5095819;28;20016;-76
2021/04/20 09:35:16;;;;;;;11.43;4.97;;;16.50;57.60;;;;;;5095260;28;20103;-76
2021/04/20 09:37:43;;;;;;;12.18;5.57;;;16.50;56.50;;;;;;5077214;28;20050;-75
2021/04/20 09:40:14;;;;;;;12.90;5.80;;;16.60;58.20;;;;;;5111974;22;20515;-73
2021/04/20 09:42:42;;;;;;;11.75;4.50;;;16.70;56.30;;;;;;5095193;28;20028;-74
2021/04/20 09:45:31;;;;;;;12.57;5.75;;;16.60;55.10;;;;;;5108464;22;20106;-76
2021/04/20 09:48:01;;;;;;;10.60;4.88;;;16.40;55.90;;;;;;5095503;28;20020;-75
2021/04/20 09:50:33;;;;;;;6.80;3.90;;;16.40;57.10;;;;;;5094874;28;20427;-74
2021/04/20 09:53:17;;;;;;;7.97;3.90;;;16.50;57.50;;;;;;5108979;22;20070;-75
2021/04/20 09:58:19;;;;;;;9.75;4.10;;;16.80;53.90;;;;;;5084273;22;20629;-75
2021/04/20 10:03:32;;;;;;;;;;;16.80;54.50;;;;;;5097536;28;20048;-76
2021/04/20 10:06:13;;;;;;;7.03;3.60;;;16.80;54.30;;;;;;5095336;28;20006;-75
2021/04/20 10:08:39;;;;;;;7.13;4.18;;;16.80;53.70;;;;;;5094098;28;20044;-76
2021/04/20 10:11:19;;;;;;;8.60;3.67;;;16.70;53.60;;;;;;5094469;28;20020;-76
2021/04/20 10:13:48;;;;;;;6.05;2.92;;;16.70;53.50;;;;;;5075929;28;20178;-75
2021/04/20 10:16:22;;;;;;;5.32;3.00;;;17.20;54.80;;;;;;5094528;28;20052;-75
2021/04/20 10:19:03;;;;;;;6.68;3.42;;;17.20;54.80;;;;;;5075665;28;20111;-75
2021/04/20 10:21:54;;;;;;;7.70;3.75;;;17.50;53.60;;;;;;5093853;28;20048;-75
2021/04/20 10:24:26;;;;;;;5.00;3.28;;;18.30;52.00;;;;;;5075960;28;20035;-76
2021/04/20 10:27:12;;;;;;;6.15;3.22;;;17.50;50.90;;;;;;5075690;28;20016;-76
2021/04/20 10:29:50;;;;;;;4.20;2.70;;;17.70;51.90;;;;;;5075682;28;20112;-76
2021/04/20 10:32:37;;;;;;;7.28;3.03;;;17.90;51.10;;;;;;5093798;28;20024;-76
2021/04/20 10:35:05;;;;;;;5.57;2.90;;;18.30;49.80;;;;;;5075618;28;20035;-76
2021/04/20 10:37:39;;;;;;;4.75;2.83;;;18.60;49.00;;;;;;5094015;28;20012;-75
2021/04/20 10:40:11;;;;;;;3.95;2.20;;;18.70;47.90;;;;;;5088114;22;20177;-75
2021/04/20 10:42:37;;;;;;;4.43;2.42;;;18.80;48.00;;;;;;5076261;28;20468;-76
2021/04/20 10:45:06;;;;;;;4.45;2.70;;;18.70;47.80;;;;;;5090199;22;20036;-76
2021/04/20 10:47:34;;;;;;;6.47;3.13;;;18.70;48.90;;;;;;5094901;28;20024;-78
2021/04/20 10:50:00;;;;;;;5.97;3.00;;;18.80;47.60;;;;;;5107865;22;20043;31
2021/04/20 10:52:31;;;;;;;6.82;3.60;;;21.10;49.90;;;;;;5052873;28;20040;-75
2021/04/20 10:55:11;;;;;;;6.57;3.17;;;19.00;48.50;;;;;;5035870;28;20029;-75
2021/04/20 10:57:46;;;;;;;7.22;3.83;;;19.30;47.90;;;;;;5057701;28;20392;-74
2021/04/20 11:00:19;;;;;;;8.43;4.53;;;19.50;46.40;;;;;;5073251;28;20020;-74
2021/04/20 11:02:50;;;;;;;9.85;4.75;;;19.40;47.50;;;;;;5073239;28;20108;-74
2021/04/20 11:05:21;;;;;;;11.00;5.63;;;19.20;50.00;;;;;;5073119;28;20024;-77
2021/04/20 11:07:48;;;;;;;11.43;5.60;;;20.70;51.70;;;;;;5055926;28;20028;-75
2021/04/20 11:10:15;;;;;;;11.73;5.75;;;18.90;49.70;;;;;;5055092;28;20035;-75
2021/04/20 11:12:47;;;;;;;10.48;5.55;;;18.60;49.10;;;;;;5073606;28;20412;-75
2021/04/20 11:15:24;;;;;;;11.50;4.95;;;18.40;50.20;;;;;;5073440;28;20472;-74
2021/04/20 11:17:56;;;;;;;12.68;5.97;;;18.20;50.50;;;;;;5058453;28;20017;-82
2021/04/20 11:20:42;;;;;;;10.60;5.80;;;18.10;51.60;;;;;;5088236;22;20080;-77
2021/04/20 11:23:11;;;;;;;10.35;5.28;;;18.10;50.80;;;;;;5078688;28;20052;-77
2021/04/20 11:25:54;;;;;;;10.43;5.30;;;18.00;51.00;;;;;;5095078;28;20052;-77
2021/04/20 11:28:31;;;;;;;10.68;5.68;;;17.90;51.80;;;;;;5095218;28;20135;-78
2021/04/20 11:31:05;;;;;;;11.77;5.40;;;17.90;52.70;;;;;;5096736;28;20024;-77
2021/04/20 11:33:54;;;;;;;9.75;5.45;;;17.90;52.70;;;;;;5077668;28;20024;-77
2021/04/20 11:36:21;;;;;;;;;;;17.90;52.50;;;;;;5081749;28;20024;-79
2021/04/20 11:38:52;;;;;;;12.90;5.75;;;17.90;53.10;;;;;;5099443;28;19911;-78
2021/04/20 11:41:26;;;;;;;12.45;5.53;;;18.10;52.80;;;;;;5100197;28;20077;-82
2021/04/20 11:43:56;;;;;;;9.40;5.10;;;18.20;52.80;;;;;;5081552;28;20115;-78
2021/04/20 11:46:23;;;;;;;10.70;5.82;;;19.10;53.30;;;;;;5100361;28;20103;-84
2021/04/20 11:48:56;;;;;;;12.55;5.68;;;18.40;49.70;;;;;;5081586;28;20542;-84
2021/04/20 11:51:32;;;;;;;10.25;5.35;;;18.30;50.20;;;;;;5103432;22;20043;-77
2021/04/20 11:54:01;;;;;;;10.75;5.28;;;18.20;50.00;;;;;;5100572;28;20020;-84
2021/04/20 11:56:35;;;;;;;10.90;5.53;;;18.30;51.20;;;;;;5099432;28;20032;-80
2021/04/20 11:59:01;;;;;;;8.95;5.20;;;18.10;50.60;;;;;;5081400;28;20028;-79
2021/04/20 12:01:27;;;;;;;12.05;5.60;;;18.20;51.00;;;;;;5100105;28;20036;-81
2021/04/20 12:03:55;;;;;;;10.07;5.70;;;18.20;50.50;;;;;;5099994;28;20493;-78
2021/04/20 12:06:22;;;;;;;10.50;5.95;;;18.40;50.10;;;;;;5081795;28;20022;-84
2021/04/20 12:08:56;;;;;;;14.48;6.03;;;18.50;49.10;;;;;;5100205;28;20058;-78
2021/04/20 12:11:27;;;;;;;9.85;4.95;;;18.60;50.40;;;;;;5081622;28;20052;-81
2021/04/20 12:13:53;;;;;;;11.52;4.97;;;18.70;51.10;;;;;;5081892;28;20028;-77
2021/04/20 12:16:20;;;;;;;13.07;5.50;;;18.70;50.20;;;;;;5099305;28;20024;-79
2021/04/20 12:18:47;;;;;;;10.52;5.18;;;18.80;49.70;;;;;;5080215;28;20085;-77
2021/04/20 12:21:25;;;;;;;9.80;5.15;;;18.70;49.70;;;;;;5081322;28;20503;-78
2021/04/20 12:23:54;;;;;;;13.00;6.40;;;18.90;50.60;;;;;;5079370;28;20043;-79
2021/04/20 12:26:19;;;;;;;;;;;19.40;49.70;;;;;;5080306;28;20059;-78
2021/04/20 12:28:54;;;;;;;9.82;5.35;;;19.10;50.50;;;;;;5080511;28;19908;-77
2021/04/20 12:31:37;;;;;;;11.27;5.60;;;19.40;49.20;;;;;;5096981;28;20020;-74
2021/04/20 12:34:04;;;;;;;11.20;5.60;;;19.60;50.10;;;;;;5097716;28;20020;-75
2021/04/20 12:36:30;;;;;;;12.55;5.93;;;19.70;49.50;;;;;;5097179;28;20115;-75
2021/04/20 12:39:00;;;;;;;9.65;5.55;;;20.10;50.50;;;;;;5078418;28;20020;-75
2021/04/20 12:41:29;;;;;;;12.98;6.97;;;20.20;50.50;;;;;;5096125;28;20036;-74
2021/04/20 12:43:57;;;;;;;11.95;6.63;;;20.00;49.10;;;;;;5077424;28;20028;-74
2021/04/20 12:46:28;;;;;;;11.30;6.25;;;19.90;50.00;;;;;;5095298;28;20020;-77
2021/04/20 12:49:00;;;;;;;9.00;5.32;;;19.80;51.00;;;;;;5077985;28;20494;-76
2021/04/20 12:51:29;;;;;;;11.10;6.25;;;19.70;49.20;;;;;;5078044;28;20028;-75
2021/04/20 12:53:57;;;;;;;12.07;6.32;;;19.50;49.20;;;;;;5096267;28;20112;-74
2021/04/20 12:56:42;;;;;;;11.37;6.37;;;19.50;48.20;;;;;;5096016;28;20024;-74
2021/04/20 12:59:15;;;;;;;11.77;6.85;;;19.40;50.20;;;;;;5096164;28;20377;-75
2021/04/20 13:01:42;;;;;;;14.13;7.43;;;19.50;51.40;;;;;;5093150;22;20036;-75
2021/04/20 13:04:08;;;;;;;16.85;7.50;;;19.50;52.30;;;;;;5096098;28;20031;-75
2021/04/20 13:06:35;;;;;;;13.40;6.72;;;19.40;50.60;;;;;;5077572;28;20430;-75
2021/04/20 13:09:01;;;;;;;13.98;7.18;;;19.50;51.80;;;;;;5096016;28;20020;-75
2021/04/20 13:11:30;;;;;;;14.40;7.50;;;19.80;51.20;;;;;;5108928;22;20028;-76
2021/04/20 13:14:00;;;;;;;;;;;19.90;50.70;;;;;;5073014;22;20041;-77